Terminal Aerodrome Forecast
Issued by NWS Cleveland, OH

Home | Current Version | Previous Version | Graphics & Text | Print | Product List | Glossary Off
Versions: 1 2 3 4 5 6 7 8 9 10 11 12 13 14

469
FTUS41 KCLE 222326
TAFERI
TAF
KERI 222326Z 2300/2324 30005KT P6SM SKC
     FM230200 18003KT P6SM SKC
     FM231500 21005KT P6SM SCT035
     FM231700 28007KT P6SM SKC=

USA.gov is the U.S. government's official web portal to all federal, state and local government web resources and services.